Pagina principale
METAR-TAF:

METAR-TAF

Aeroporti :

Sion, Svizzera

latitudine: 46-13N, longitudine: 007-20E, altezza: 482 m

Osservazione

Il bollettino è stato emesso 20 minuti fa, alle 12:50 UTC
Vento 22 kt da ovest
Temperature 11°C
Umidità 58%
Pressione 1007 hPa
Visibilità 10 km o più
Nubi sparse ad un'altezza di 5000 ft
Nuvoloso ad un'altezza di 8000 ft

METAR: LSGS 161250Z 27022KT 9999 SCT050 BKN080 11/03 Q1007

Ora: 14:10 (13:10 UTC)

Previsione

Il bollettino è stato emesso 1 ora e 45 minuti fa, alle 11:25 UTC
Previsione valida dal 16 alle 12 UTC al 16 alle 21 UTC
Vento 12 kt da ovest/sud-ovest
Visibilità 10 km o più
Nubi sparse ad un'altezza di 4000 ft
Nuvoloso ad un'altezza di 7000 ft
pioggia debole

TAF: LSGS 161125Z 1612/1621 24012KT 9999 -RA SCT040 BKN070

Osservazioni e previsioni meteorologiche di più di 4000 aeroporti (messaggi METAR e TAF).

Le stazioni disponibili sono rappresentate dai dischi gialli e rossi sulla carta.

Puntare il mouse per vedere il nome della stazione.

Clicca sopra per visualizzare le osservazioni e previsioni meteorologiche.

Per cambiare la mappa : fare clic sui pulsanti verdi con una croce nera per ingrandire, il pulsante verde con un trattino per diminuire, o sulla freccia verde per le mappe adiacenti.


METAR-TAF: